Time;durP1;ratioP1;P1;durP2;ratioP2;P2;SDS_P1;SDS_P2;PMS_P1;PMS_P2;Temp;Humidity;BMP_temperature;BMP_pressure;BME280_temperature;BME280_humidity;BME280_pressure;Samples;Min_cycle;Max_cycle;Signal;HPM_P1;HPM_P2
2022/11/14 00:02:15;;;;;;;85.50;64.20;;;3.60;91.30;;;;;;5048352;28;20037;-73
2022/11/14 00:04:45;;;;;;;93.47;69.65;;;3.60;91.30;;;;;;5047079;28;20029;-73
2022/11/14 00:07:11;;;;;;;113.03;74.60;;;3.60;91.30;;;;;;5047337;28;20060;-74
2022/11/14 00:09:39;;;;;;;106.70;70.05;;;3.60;91.30;;;;;;5052245;28;20029;-73
2022/11/14 00:12:05;;;;;;;105.25;66.80;;;3.60;91.30;;;;;;5051868;28;20044;-73
2022/11/14 00:14:31;;;;;;;103.53;69.65;;;3.60;91.30;;;;;;5054954;28;20054;-72
2022/11/14 00:16:56;;;;;;;123.82;82.28;;;3.60;91.40;;;;;;5051069;28;20484;-73
2022/11/14 00:19:22;;;;;;;107.15;72.68;;;3.60;91.20;;;;;;5051509;28;20020;-73
2022/11/14 00:21:48;;;;;;;105.72;73.00;;;3.60;91.00;;;;;;5052538;28;20607;-73
2022/11/14 00:24:14;;;;;;;116.07;79.18;;;3.50;90.90;;;;;;5059454;28;20377;-74
2022/11/14 00:26:40;;;;;;;105.35;71.13;;;3.50;90.90;;;;;;5048555;28;20053;-72
2022/11/14 00:29:05;;;;;;;108.47;73.93;;;3.50;91.00;;;;;;5053094;28;20555;-72
2022/11/14 00:31:31;;;;;;;109.75;71.53;;;3.50;91.10;;;;;;5051471;28;20041;-72
2022/11/14 00:33:57;;;;;;;108.82;72.72;;;3.50;91.20;;;;;;5046638;28;20037;-72
2022/11/14 00:36:23;;;;;;;117.45;75.28;;;3.50;91.20;;;;;;5054428;28;20036;-76
2022/11/14 00:38:52;;;;;;;129.90;82.13;;;3.60;91.20;;;;;;5056593;28;20043;-73
2022/11/14 00:41:18;;;;;;;157.02;93.93;;;3.50;91.20;;;;;;5068334;28;20052;-75
2022/11/14 00:43:44;;;;;;;145.60;92.53;;;3.50;91.30;;;;;;5057820;28;20076;-73
2022/11/14 00:46:10;;;;;;;156.70;102.85;;;3.50;91.30;;;;;;5050105;28;20065;-72
2022/11/14 00:48:35;;;;;;;163.15;99.22;;;3.50;91.30;;;;;;5048856;28;20048;-73
2022/11/14 00:51:01;;;;;;;154.55;97.50;;;3.50;91.40;;;;;;5052392;28;20033;-73
2022/11/14 00:53:27;;;;;;;166.30;103.22;;;3.50;91.40;;;;;;5049994;28;20420;-73
2022/11/14 00:55:53;;;;;;;145.57;96.50;;;3.50;91.40;;;;;;5048771;28;20124;-73
2022/11/14 00:58:19;;;;;;;124.72;82.20;;;3.50;91.40;;;;;;5053345;28;20041;-72
2022/11/14 01:00:45;;;;;;;113.45;74.53;;;3.60;91.40;;;;;;5053246;28;20040;-71
2022/11/14 01:03:10;;;;;;;101.93;71.13;;;3.60;91.40;;;;;;5051931;28;20054;-72
2022/11/14 01:05:43;;;;;;;110.03;76.20;;;3.60;91.40;;;;;;5048584;28;20464;-75
2022/11/14 01:08:10;;;;;;;105.13;74.47;;;3.60;91.40;;;;;;5053419;28;20109;-71
2022/11/14 01:10:54;;;;;;;99.45;72.15;;;3.60;91.30;;;;;;5048118;28;20024;-74
2022/11/14 01:13:20;;;;;;;100.20;72.50;;;3.50;91.30;;;;;;5066717;28;20121;-76
2022/11/14 01:15:48;;;;;;;83.30;62.10;;;3.50;91.30;;;;;;5062872;28;20103;-72
2022/11/14 01:18:16;;;;;;;81.63;62.60;;;3.40;91.30;;;;;;5049472;28;20128;-74
2022/11/14 01:20:43;;;;;;;69.18;55.05;;;3.50;91.40;;;;;;5050221;28;20064;-73
2022/11/14 01:23:11;;;;;;;71.28;54.60;;;3.50;91.40;;;;;;5051535;28;20052;-74
2022/11/14 01:25:38;;;;;;;60.55;51.00;;;3.60;91.40;;;;;;5054593;28;20060;-74
2022/11/14 01:28:10;;;;;;;63.10;51.55;;;3.50;91.30;;;;;;5050995;28;20128;-73
2022/11/14 01:30:36;;;;;;;97.25;64.10;;;3.50;91.40;;;;;;5054176;28;20041;-72
2022/11/14 01:33:02;;;;;;;87.10;64.82;;;3.50;91.40;;;;;;5044271;28;20116;-72
2022/11/14 01:35:28;;;;;;;79.00;59.78;;;3.50;91.40;;;;;;5055405;28;20039;-72
2022/11/14 01:37:54;;;;;;;110.32;72.72;;;3.50;91.50;;;;;;5050628;28;20284;-73
2022/11/14 01:40:20;;;;;;;92.38;65.82;;;3.50;91.50;;;;;;5062610;28;20465;-74
2022/11/14 01:43:10;;;;;;;87.40;60.75;;;3.50;91.50;;;;;;5055870;28;20465;-74
2022/11/14 01:46:05;;;;;;;87.78;62.03;;;3.50;91.70;;;;;;5063320;28;20381;-76
2022/11/14 01:48:37;;;;;;;84.88;59.05;;;3.50;91.60;;;;;;5052435;28;20422;-74
2022/11/14 01:51:16;;;;;;;66.35;51.70;;;3.60;91.70;;;;;;5052416;28;20529;-73
2022/11/14 01:53:43;;;;;;;132.27;50.85;;;3.60;91.70;;;;;;5046805;28;20033;-73
2022/11/14 01:56:13;;;;;;;52.60;43.53;;;3.50;91.60;;;;;;5049291;28;20066;-73
2022/11/14 01:58:43;;;;;;;88.38;46.60;;;3.50;91.70;;;;;;5053003;28;20039;-73
2022/11/14 02:01:09;;;;;;;48.55;40.90;;;3.50;91.70;;;;;;5052935;28;20052;-74
2022/11/14 02:03:37;;;;;;;50.05;42.35;;;3.50;91.70;;;;;;5054421;28;20063;-74
2022/11/14 02:06:05;;;;;;;54.30;44.22;;;3.50;91.80;;;;;;5052059;28;20056;-74
2022/11/14 02:08:32;;;;;;;66.40;46.45;;;3.50;91.80;;;;;;5049543;28;20044;-73
2022/11/14 02:10:57;;;;;;;68.00;47.83;;;3.60;91.80;;;;;;5046240;28;20111;-73
2022/11/14 02:13:23;;;;;;;80.68;55.70;;;3.50;91.90;;;;;;5048903;28;20083;-74
2022/11/14 02:15:50;;;;;;;72.25;52.70;;;3.50;91.80;;;;;;5050094;28;20063;-73
2022/11/14 02:18:15;;;;;;;91.10;61.63;;;3.50;91.90;;;;;;5045497;28;20036;-73
2022/11/14 02:20:42;;;;;;;85.40;58.95;;;3.50;91.90;;;;;;5052626;28;20042;-72
2022/11/14 02:23:09;;;;;;;156.70;95.57;;;3.50;91.90;;;;;;5050780;28;20098;-73
2022/11/14 02:25:36;;;;;;;85.28;60.45;;;3.50;91.90;;;;;;5051628;28;20037;-73
2022/11/14 02:28:03;;;;;;;60.17;44.95;;;3.50;92.00;;;;;;5045656;28;20052;-74
2022/11/14 02:30:29;;;;;;;62.70;42.60;;;3.50;92.00;;;;;;5050474;28;20032;-73
2022/11/14 02:32:55;;;;;;;46.67;39.22;;;3.50;91.90;;;;;;5046918;28;20060;-73
2022/11/14 02:35:20;;;;;;;45.63;38.83;;;3.40;91.80;;;;;;5049986;28;20065;-77
2022/11/14 02:37:46;;;;;;;42.70;37.33;;;3.30;91.80;;;;;;5049468;28;20513;-73
2022/11/14 02:40:12;;;;;;;45.38;38.53;;;3.30;91.90;;;;;;5045833;28;20056;-73
2022/11/14 02:42:38;;;;;;;51.25;38.38;;;3.30;92.00;;;;;;5050487;28;20315;-73
2022/11/14 02:45:04;;;;;;;43.25;38.00;;;3.30;92.00;;;;;;5048413;28;20448;-76
2022/11/14 02:47:30;;;;;;;50.38;43.63;;;3.40;92.10;;;;;;5052714;28;20119;-72
2022/11/14 02:49:56;;;;;;;42.42;37.78;;;3.40;92.10;;;;;;5048187;28;20509;-73
2022/11/14 02:52:22;;;;;;;61.17;36.40;;;3.40;92.10;;;;;;5047026;28;20045;-72
2022/11/14 02:54:47;;;;;;;57.00;35.05;;;3.50;92.20;;;;;;5045286;28;20155;-74
2022/11/14 02:57:13;;;;;;;41.88;34.97;;;3.40;92.10;;;;;;5058386;28;20040;-73
2022/11/14 02:59:39;;;;;;;34.33;30.58;;;3.40;92.30;;;;;;5052809;28;20120;-73
2022/11/14 03:02:04;;;;;;;32.33;27.80;;;3.50;92.30;;;;;;5054879;28;20535;-73
2022/11/14 03:04:30;;;;;;;55.80;33.17;;;3.50;92.40;;;;;;5049153;28;20037;-73
2022/11/14 03:06:56;;;;;;;28.55;25.45;;;3.60;92.40;;;;;;5047069;28;20041;-73
2022/11/14 03:09:22;;;;;;;27.35;24.52;;;3.60;92.40;;;;;;5050500;28;20388;-75
2022/11/14 03:11:48;;;;;;;27.45;24.65;;;3.70;92.50;;;;;;5057587;28;20374;-72
2022/11/14 03:14:13;;;;;;;32.80;23.88;;;3.70;92.50;;;;;;5059989;28;20118;-73
2022/11/14 03:16:39;;;;;;;24.77;22.10;;;3.70;92.50;;;;;;5048822;28;20388;-72
2022/11/14 03:19:05;;;;;;;25.17;22.58;;;3.70;92.50;;;;;;5051083;28;20053;-73
2022/11/14 03:21:31;;;;;;;24.77;22.02;;;3.80;92.60;;;;;;5048487;28;20037;-75
2022/11/14 03:23:56;;;;;;;23.45;21.05;;;3.80;92.60;;;;;;5050650;28;20087;-74
2022/11/14 03:26:22;;;;;;;23.88;21.40;;;3.80;92.60;;;;;;5044824;28;20079;-73
2022/11/14 03:28:48;;;;;;;25.45;22.75;;;3.80;92.60;;;;;;5064148;28;20038;-74
2022/11/14 03:31:14;;;;;;;24.38;21.05;;;3.80;92.70;;;;;;5046266;28;20037;-74
2022/11/14 03:33:40;;;;;;;34.50;21.25;;;3.80;92.70;;;;;;5048097;28;20052;-73
2022/11/14 03:36:06;;;;;;;25.35;22.27;;;3.90;92.70;;;;;;5050851;28;20024;-76
2022/11/14 03:38:32;;;;;;;24.42;21.92;;;3.90;92.80;;;;;;5048134;28;20059;-73
2022/11/14 03:40:59;;;;;;;23.00;20.60;;;3.80;92.80;;;;;;5058817;28;20479;-73
2022/11/14 03:43:25;;;;;;;23.95;21.45;;;3.80;92.90;;;;;;5048996;28;20045;-74
2022/11/14 03:45:50;;;;;;;22.38;19.90;;;3.80;92.80;;;;;;5055296;28;20033;-73
2022/11/14 03:48:16;;;;;;;22.92;20.45;;;3.90;92.80;;;;;;5069825;28;20055;-73
2022/11/14 03:50:42;;;;;;;21.75;19.58;;;3.90;92.90;;;;;;5056952;28;20043;-73
2022/11/14 03:53:09;;;;;;;22.00;19.80;;;3.90;92.90;;;;;;5049307;28;20082;-76
2022/11/14 03:55:34;;;;;;;22.80;20.35;;;3.90;92.90;;;;;;5055090;28;20139;-73
2022/11/14 03:58:00;;;;;;;21.70;19.45;;;4.00;93.00;;;;;;5045639;28;20124;-77
2022/11/14 04:00:27;;;;;;;21.10;18.90;;;3.90;93.00;;;;;;5048704;28;20038;-72
2022/11/14 04:02:54;;;;;;;23.48;21.00;;;3.90;93.00;;;;;;5050508;28;20040;-72
2022/11/14 04:05:20;;;;;;;20.25;18.13;;;3.90;93.00;;;;;;5070095;28;20040;-73
2022/11/14 04:07:46;;;;;;;47.67;21.20;;;3.90;93.00;;;;;;5051741;28;20107;-73
2022/11/14 04:10:12;;;;;;;20.67;18.58;;;3.90;93.00;;;;;;5054176;28;20044;-73
2022/11/14 04:12:38;;;;;;;21.23;18.92;;;3.90;93.10;;;;;;5049340;28;20037;-74
2022/11/14 04:15:04;;;;;;;61.95;26.25;;;3.90;93.10;;;;;;5048909;28;20487;-75
2022/11/14 04:17:29;;;;;;;22.08;19.75;;;3.90;93.00;;;;;;5058599;28;20171;-72
2022/11/14 04:19:55;;;;;;;24.45;19.48;;;3.90;93.10;;;;;;5054452;28;20492;-72
2022/11/14 04:22:20;;;;;;;25.30;22.70;;;3.90;93.10;;;;;;5055044;28;20045;-73
2022/11/14 04:24:46;;;;;;;27.95;21.67;;;3.90;93.10;;;;;;5052975;28;20056;-73
2022/11/14 04:27:12;;;;;;;49.35;26.60;;;3.90;93.00;;;;;;5051190;28;20060;-72
2022/11/14 04:29:37;;;;;;;22.23;19.83;;;3.80;93.00;;;;;;5055128;28;20075;-75
2022/11/14 04:32:03;;;;;;;23.27;20.83;;;3.80;92.90;;;;;;5055201;28;20049;-72
2022/11/14 04:34:29;;;;;;;22.58;19.98;;;3.80;92.90;;;;;;5059311;28;20388;-71
2022/11/14 04:36:54;;;;;;;30.98;22.55;;;3.70;92.90;;;;;;5050546;28;20041;-72
2022/11/14 04:39:20;;;;;;;25.15;22.08;;;3.70;92.80;;;;;;5051644;28;20067;-73
2022/11/14 04:41:46;;;;;;;28.27;22.17;;;3.70;92.80;;;;;;5053275;28;20033;-73
2022/11/14 04:44:11;;;;;;;36.17;24.63;;;3.60;92.80;;;;;;5049424;28;20120;-74
2022/11/14 04:46:37;;;;;;;33.67;22.45;;;3.60;92.80;;;;;;5050326;28;20148;-75
2022/11/14 04:49:02;;;;;;;24.40;21.83;;;3.50;92.80;;;;;;5053704;28;20065;-73
2022/11/14 04:51:28;;;;;;;23.75;21.25;;;3.50;92.70;;;;;;5052873;28;20115;-73
2022/11/14 04:53:54;;;;;;;24.23;21.63;;;3.50;92.80;;;;;;5050002;28;20037;-73
2022/11/14 04:56:22;;;;;;;23.65;21.10;;;3.40;92.80;;;;;;5052622;28;20040;-76
2022/11/14 04:58:48;;;;;;;24.45;21.83;;;3.40;92.80;;;;;;5053869;28;20044;-75
2022/11/14 05:01:14;;;;;;;23.58;21.08;;;3.40;92.80;;;;;;5041322;28;20454;-73
2022/11/14 05:03:39;;;;;;;33.65;23.30;;;3.30;92.50;;;;;;5046101;28;20048;-73
2022/11/14 05:06:05;;;;;;;26.00;22.08;;;3.20;92.40;;;;;;5048331;28;20044;-73
2022/11/14 05:08:31;;;;;;;26.60;22.50;;;3.00;92.20;;;;;;5052820;28;20059;-73
2022/11/14 05:10:56;;;;;;;30.15;23.52;;;2.90;92.30;;;;;;5048977;28;20037;-73
2022/11/14 05:13:22;;;;;;;31.98;24.38;;;2.90;92.30;;;;;;5046567;28;20033;-73
2022/11/14 05:15:48;;;;;;;27.55;24.55;;;2.80;92.40;;;;;;5057837;28;20124;-75
2022/11/14 05:18:13;;;;;;;29.38;24.50;;;2.80;92.50;;;;;;5047639;28;20360;-73
2022/11/14 05:20:39;;;;;;;28.67;25.08;;;2.90;92.60;;;;;;5046566;28;20074;-72
2022/11/14 05:23:05;;;;;;;27.73;24.50;;;2.90;92.60;;;;;;5047201;28;20033;-73
2022/11/14 05:25:30;;;;;;;27.13;23.80;;;2.90;92.70;;;;;;5041084;28;20450;-72
2022/11/14 05:27:56;;;;;;;31.65;27.13;;;2.90;92.70;;;;;;5040190;28;20060;-72
2022/11/14 05:30:22;;;;;;;29.55;25.75;;;2.90;92.80;;;;;;5042363;28;20522;-73
2022/11/14 05:32:47;;;;;;;27.88;24.73;;;2.90;92.70;;;;;;5044885;28;20094;-73
2022/11/14 05:35:13;;;;;;;36.20;30.02;;;2.80;92.70;;;;;;5046822;28;20032;-72
2022/11/14 05:37:39;;;;;;;36.50;30.15;;;2.80;92.70;;;;;;5048048;28;20028;-72
2022/11/14 05:40:05;;;;;;;40.67;31.08;;;2.80;92.70;;;;;;5042485;28;20481;-74
2022/11/14 05:42:31;;;;;;;44.47;31.00;;;2.70;92.60;;;;;;5043221;28;20049;-75
2022/11/14 05:44:56;;;;;;;47.45;37.58;;;2.70;92.70;;;;;;5038998;28;20467;-76
2022/11/14 05:47:22;;;;;;;48.33;39.15;;;2.60;92.70;;;;;;5036804;28;20033;-73
2022/11/14 05:49:47;;;;;;;81.18;61.80;;;2.60;92.70;;;;;;5045022;28;20060;-73
2022/11/14 05:52:13;;;;;;;70.50;51.70;;;2.60;92.80;;;;;;5043347;28;20042;-73
2022/11/14 05:54:39;;;;;;;55.85;42.25;;;2.60;92.80;;;;;;5048234;28;20040;-73
2022/11/14 05:57:04;;;;;;;48.13;36.92;;;2.50;92.70;;;;;;5044140;28;20116;-72
2022/11/14 05:59:30;;;;;;;55.13;39.80;;;2.50;92.80;;;;;;5049621;28;20029;-72
2022/11/14 06:01:56;;;;;;;47.67;37.30;;;2.50;92.90;;;;;;5043570;28;20041;-73
2022/11/14 06:04:22;;;;;;;60.65;41.17;;;2.50;92.90;;;;;;5055191;28;20128;-73
2022/11/14 06:06:48;;;;;;;49.42;37.67;;;2.50;92.80;;;;;;5041715;28;20064;-74
2022/11/14 06:09:13;;;;;;;51.95;39.45;;;2.40;92.80;;;;;;5064042;28;20135;-73
2022/11/14 06:11:39;;;;;;;48.85;39.67;;;2.50;92.80;;;;;;5045197;28;20499;-74
2022/11/14 06:14:05;;;;;;;46.75;38.55;;;2.40;92.70;;;;;;5048607;28;20111;-74
2022/11/14 06:16:31;;;;;;;42.22;35.30;;;2.40;92.70;;;;;;5061546;28;20114;-73
2022/11/14 06:18:57;;;;;;;44.72;37.05;;;2.30;92.60;;;;;;5050013;28;20049;-72
2022/11/14 06:21:24;;;;;;;42.45;36.38;;;2.20;92.60;;;;;;5042527;28;20044;-74
2022/11/14 06:23:50;;;;;;;39.90;34.00;;;2.20;92.70;;;;;;5042915;28;20025;-73
2022/11/14 06:26:29;;;;;;;39.75;33.55;;;2.20;92.70;;;;;;5056811;28;20040;-72
2022/11/14 06:28:55;;;;;;;36.78;31.88;;;2.20;92.80;;;;;;5054027;28;20049;-74
2022/11/14 06:31:22;;;;;;;34.25;29.08;;;2.20;92.80;;;;;;5046717;28;20083;-73
2022/11/14 06:33:48;;;;;;;34.78;30.85;;;2.20;92.80;;;;;;5047283;28;20029;-76
2022/11/14 06:36:14;;;;;;;34.85;30.23;;;2.20;92.90;;;;;;5045617;28;20083;-73
2022/11/14 06:38:41;;;;;;;35.80;30.60;;;2.30;92.90;;;;;;5064905;28;20393;-73
2022/11/14 06:41:17;;;;;;;38.05;32.78;;;2.30;92.90;;;;;;5049230;28;20130;-76
2022/11/14 06:43:45;;;;;;;36.53;30.67;;;2.30;92.90;;;;;;5043923;28;20033;-72
2022/11/14 06:46:13;;;;;;;35.83;31.23;;;2.20;92.90;;;;;;5045496;28;20389;-74
2022/11/14 06:48:40;;;;;;;42.35;34.50;;;2.20;92.90;;;;;;5049277;28;20049;-73
2022/11/14 06:51:06;;;;;;;35.53;30.48;;;2.20;92.90;;;;;;5051697;28;20041;-73
2022/11/14 06:53:34;;;;;;;37.88;31.38;;;2.30;92.90;;;;;;5045342;28;20041;-74
2022/11/14 06:56:03;;;;;;;38.10;32.45;;;2.30;92.90;;;;;;5049001;28;20052;-74
2022/11/14 06:58:34;;;;;;;34.92;30.40;;;2.30;92.90;;;;;;5051503;28;20392;-73
2022/11/14 07:01:17;;;;;;;38.15;32.20;;;2.30;92.90;;;;;;5043704;28;20469;-73
2022/11/14 07:03:43;;;;;;;36.05;30.90;;;2.30;92.80;;;;;;5045968;28;20052;-73
2022/11/14 07:06:12;;;;;;;40.05;33.08;;;2.30;92.60;;;;;;5043217;28;20068;-74
2022/11/14 07:08:38;;;;;;;36.92;30.90;;;2.20;92.40;;;;;;5049322;28;20713;-74
2022/11/14 07:11:21;;;;;;;34.70;28.92;;;2.30;92.50;;;;;;5051868;28;20041;-73
2022/11/14 07:13:50;;;;;;;36.15;30.05;;;2.20;92.50;;;;;;5057412;28;20044;-74
2022/11/14 07:16:16;;;;;;;40.10;29.50;;;2.30;92.50;;;;;;5054772;28;20507;-73
2022/11/14 07:18:42;;;;;;;39.75;28.50;;;2.30;92.40;;;;;;5051111;28;20037;-74
2022/11/14 07:21:08;;;;;;;45.65;29.58;;;2.20;92.20;;;;;;5051207;28;20048;-73
2022/11/14 07:23:34;;;;;;;40.67;29.15;;;2.30;92.20;;;;;;5050361;28;20037;-74
2022/11/14 07:26:10;;;;;;;42.10;30.10;;;2.30;92.20;;;;;;5052575;28;20041;-74
2022/11/14 07:28:38;;;;;;;42.45;28.33;;;2.30;92.20;;;;;;5050977;28;20075;-73
2022/11/14 07:31:06;;;;;;;42.55;29.42;;;2.30;92.30;;;;;;5056857;28;20041;-74
2022/11/14 07:33:32;;;;;;;40.90;30.67;;;2.30;92.30;;;;;;5068340;28;20029;-73
2022/11/14 07:35:57;;;;;;;46.15;30.38;;;2.40;92.40;;;;;;5075434;28;20029;-74
2022/11/14 07:38:23;;;;;;;53.47;33.65;;;2.50;92.40;;;;;;5045317;28;20102;-74
2022/11/14 07:40:56;;;;;;;54.22;31.08;;;2.60;92.40;;;;;;5062759;28;20048;-74
2022/11/14 07:43:22;;;;;;;43.30;29.83;;;2.60;92.40;;;;;;5045480;28;20037;-73
2022/11/14 07:45:48;;;;;;;45.10;31.35;;;2.70;92.40;;;;;;5046504;28;20036;-74
2022/11/14 07:48:15;;;;;;;43.40;31.05;;;2.70;92.40;;;;;;5051776;28;20453;-73
2022/11/14 07:50:41;;;;;;;51.75;34.35;;;2.80;92.40;;;;;;5054124;28;20029;-72
2022/11/14 07:53:06;;;;;;;46.10;33.03;;;2.90;92.40;;;;;;5051666;28;20384;-72
2022/11/14 07:55:34;;;;;;;49.00;34.17;;;2.90;92.30;;;;;;5052300;28;20033;-73
2022/11/14 07:58:00;;;;;;;48.40;32.83;;;3.00;92.30;;;;;;5054700;28;20476;-74
2022/11/14 08:00:26;;;;;;;44.65;30.23;;;3.00;92.30;;;;;;5044241;28;20075;-74
2022/11/14 08:02:51;;;;;;;46.95;32.08;;;3.10;92.40;;;;;;5048154;28;20400;-73
2022/11/14 08:05:17;;;;;;;51.97;36.70;;;3.10;92.40;;;;;;5049679;28;20061;-73
2022/11/14 08:07:43;;;;;;;55.72;35.05;;;3.20;92.40;;;;;;5052437;28;20041;-73
2022/11/14 08:10:10;;;;;;;64.80;38.50;;;3.30;92.40;;;;;;5064580;28;20663;-73
2022/11/14 08:12:38;;;;;;;60.13;34.97;;;3.30;92.40;;;;;;5048463;28;20025;-73
2022/11/14 08:15:09;;;;;;;56.58;35.67;;;3.40;92.40;;;;;;5053803;28;20037;-74
2022/11/14 08:17:34;;;;;;;57.65;35.17;;;3.40;92.40;;;;;;5047529;28;20540;-73
2022/11/14 08:20:00;;;;;;;51.95;36.60;;;3.50;92.50;;;;;;5051736;28;20035;-73
2022/11/14 08:22:26;;;;;;;52.80;34.17;;;3.60;92.70;;;;;;5045511;28;20393;-74
2022/11/14 08:24:51;;;;;;;53.15;34.75;;;3.80;92.80;;;;;;5059679;28;20052;-73
2022/11/14 08:27:17;;;;;;;45.97;31.27;;;4.00;93.10;;;;;;5022698;28;20573;-74
2022/11/14 08:29:43;;;;;;;44.35;29.02;;;4.10;93.20;;;;;;5052835;28;20116;-73
2022/11/14 08:32:09;;;;;;;45.38;30.17;;;4.30;93.20;;;;;;5045753;28;20068;-74
2022/11/14 08:34:35;;;;;;;52.53;33.85;;;4.50;93.30;;;;;;5053669;28;20206;-74
2022/11/14 08:37:02;;;;;;;42.92;31.85;;;4.70;93.30;;;;;;5050246;28;20036;-74
2022/11/14 08:39:28;;;;;;;47.92;33.45;;;4.80;93.30;;;;;;5048383;28;20427;-74
2022/11/14 08:41:54;;;;;;;47.10;31.77;;;5.00;93.10;;;;;;5059974;28;20035;-74
2022/11/14 08:44:20;;;;;;;68.63;42.15;;;5.10;92.90;;;;;;5048955;28;20037;-72
2022/11/14 08:46:46;;;;;;;63.15;43.90;;;5.10;92.70;;;;;;5055174;28;20068;-73
2022/11/14 08:49:11;;;;;;;70.35;45.30;;;5.20;92.60;;;;;;5041293;28;20102;-74
2022/11/14 08:51:37;;;;;;;71.03;42.72;;;5.20;92.40;;;;;;5049169;28;20481;-74
2022/11/14 08:54:03;;;;;;;75.47;45.00;;;5.10;92.00;;;;;;5052686;28;20036;-73
2022/11/14 08:56:29;;;;;;;61.25;34.03;;;5.10;91.90;;;;;;5050391;28;20059;-73
2022/11/14 08:58:54;;;;;;;46.38;31.80;;;5.10;91.70;;;;;;5055894;28;20033;-73
2022/11/14 09:01:20;;;;;;;50.22;31.52;;;5.10;91.70;;;;;;5049351;28;22022;-74
2022/11/14 09:03:46;;;;;;;42.25;28.80;;;5.10;91.50;;;;;;5051741;28;20119;-73
2022/11/14 09:06:12;;;;;;;67.03;31.63;;;5.00;91.40;;;;;;5050595;28;20504;-76
2022/11/14 09:08:37;;;;;;;55.97;30.98;;;5.00;91.30;;;;;;5055722;28;20052;-74
2022/11/14 09:11:05;;;;;;;48.78;33.10;;;4.90;91.50;;;;;;5040253;28;20049;-73
2022/11/14 09:13:34;;;;;;;59.60;34.03;;;5.00;91.60;;;;;;5053386;28;20051;-74
2022/11/14 09:16:00;;;;;;;62.17;35.22;;;5.00;91.70;;;;;;5050354;28;20044;-73
2022/11/14 09:18:26;;;;;;;67.55;36.55;;;4.90;91.70;;;;;;5046696;28;20049;-72
2022/11/14 09:20:52;;;;;;;53.08;34.88;;;4.90;91.60;;;;;;5048394;28;20531;-71
2022/11/14 09:23:18;;;;;;;61.22;38.42;;;5.00;91.80;;;;;;5052560;28;20586;-72
2022/11/14 09:25:43;;;;;;;82.78;41.50;;;5.00;91.80;;;;;;5048650;28;20041;-73
2022/11/14 09:28:09;;;;;;;68.75;41.10;;;4.90;91.50;;;;;;5049946;28;20056;-74
2022/11/14 09:30:36;;;;;;;68.95;41.08;;;4.90;91.70;;;;;;5048201;28;20045;-74
2022/11/14 09:33:03;;;;;;;73.20;42.78;;;5.10;91.80;;;;;;5047950;28;20041;-72
2022/11/14 09:35:30;;;;;;;69.13;35.58;;;5.10;91.80;;;;;;5049855;28;20029;-73
2022/11/14 09:38:05;;;;;;;64.00;37.17;;;5.00;91.50;;;;;;5057225;28;20044;-74
2022/11/14 09:40:48;;;;;;;48.97;33.20;;;5.00;91.30;;;;;;5047037;28;20044;-73
2022/11/14 09:43:40;;;;;;;55.03;32.65;;;4.90;91.30;;;;;;5047793;28;20120;-75
2022/11/14 09:46:17;;;;;;;45.70;30.95;;;4.90;91.40;;;;;;5049886;28;20033;-73
2022/11/14 09:48:43;;;;;;;52.75;33.00;;;4.90;91.40;;;;;;5046923;28;20037;-73
2022/11/14 09:51:15;;;;;;;48.13;32.00;;;5.00;91.40;;;;;;5045302;28;20362;-74
2022/11/14 09:53:56;;;;;;;42.95;31.42;;;5.00;91.40;;;;;;5045367;28;20040;-74
2022/11/14 09:56:25;;;;;;;46.00;30.85;;;4.90;91.20;;;;;;5050580;28;20057;-74
2022/11/14 09:58:52;;;;;;;48.13;30.92;;;4.90;91.20;;;;;;5055299;28;20115;-73
2022/11/14 10:01:45;;;;;;;48.00;32.47;;;4.90;91.30;;;;;;5050973;28;20041;-75
2022/11/14 10:04:23;;;;;;;47.40;32.45;;;4.90;91.20;;;;;;5045684;28;20117;-73
2022/11/14 10:07:16;;;;;;;48.97;31.77;;;4.90;91.20;;;;;;5050767;28;20043;-73
2022/11/14 10:10:03;;;;;;;45.70;31.25;;;5.00;91.30;;;;;;5044621;28;20064;-74
2022/11/14 10:12:58;;;;;;;44.45;30.50;;;4.90;91.20;;;;;;5043843;28;20425;-73
2022/11/14 10:15:49;;;;;;;47.80;32.75;;;5.00;91.30;;;;;;5048184;28;20071;-74
2022/11/14 10:18:21;;;;;;;45.53;32.13;;;5.00;91.30;;;;;;5061355;28;20082;-74
2022/11/14 10:20:54;;;;;;;54.25;32.40;;;5.10;91.50;;;;;;5051684;28;20118;-75
2022/11/14 10:23:38;;;;;;;52.78;34.47;;;5.10;91.30;;;;;;5052418;28;20029;-77
2022/11/14 10:26:15;;;;;;;55.63;35.50;;;5.20;91.30;;;;;;5050832;28;20029;-74
2022/11/14 10:28:41;;;;;;;59.50;37.13;;;5.20;91.30;;;;;;5047255;28;20045;-74
2022/11/14 10:31:26;;;;;;;58.10;36.50;;;5.30;91.40;;;;;;5049334;28;20064;-74
2022/11/14 10:34:07;;;;;;;68.25;38.47;;;5.30;91.30;;;;;;5048650;28;20044;-73
2022/11/14 10:36:51;;;;;;;61.75;37.42;;;5.20;90.90;;;;;;5046329;28;20056;-75
2022/11/14 10:39:30;;;;;;;63.20;37.58;;;5.20;91.20;;;;;;5045219;28;20044;-75
2022/11/14 10:42:02;;;;;;;58.83;37.92;;;5.30;91.20;;;;;;5050829;28;20036;-76
2022/11/14 10:44:41;;;;;;;66.03;39.92;;;5.30;91.30;;;;;;5047991;28;20033;-75
2022/11/14 10:47:13;;;;;;;63.03;38.72;;;5.40;91.10;;;;;;5049303;28;20124;-73
2022/11/14 10:49:39;;;;;;;64.43;39.05;;;5.50;91.40;;;;;;5069855;28;20481;-76
2022/11/14 10:52:18;;;;;;;68.47;41.00;;;5.60;91.30;;;;;;5078294;28;20046;-75
2022/11/14 10:54:50;;;;;;;70.97;40.83;;;5.60;91.20;;;;;;5072000;28;20037;-73
2022/11/14 10:57:21;;;;;;;71.68;42.67;;;5.60;91.00;;;;;;5050936;28;20451;-72
2022/11/14 10:59:47;;;;;;;73.35;43.25;;;5.70;91.10;;;;;;5045845;28;20033;-74
2022/11/14 11:02:13;;;;;;;74.90;43.13;;;5.70;90.90;;;;;;5051475;28;20112;-74
2022/11/14 11:04:41;;;;;;;77.78;44.20;;;5.60;90.90;;;;;;5051370;28;20055;-73
2022/11/14 11:07:07;;;;;;;71.10;43.55;;;5.60;91.00;;;;;;5051310;28;20088;-75
2022/11/14 11:12:44;;;;;;;70.00;42.30;;;5.60;91.30;;;;;;5047573;28;20380;-74
2022/11/14 11:15:31;;;;;;;71.03;40.80;;;5.80;91.60;;;;;;5046927;28;20579;-75
2022/11/14 11:18:01;;;;;;;74.28;41.85;;;5.90;91.30;;;;;;5048633;28;20116;-74
2022/11/14 11:20:29;;;;;;;73.45;41.20;;;5.90;91.10;;;;;;5050633;28;20036;-74
2022/11/14 11:23:08;;;;;;;67.60;41.22;;;5.90;90.90;;;;;;5052031;28;20111;-72
2022/11/14 11:25:35;;;;;;;64.68;42.22;;;5.90;90.90;;;;;;5049801;28;20053;-73
2022/11/14 11:28:06;;;;;;;66.53;40.75;;;5.90;90.90;;;;;;5052119;28;20124;-73
2022/11/14 11:30:32;;;;;;;72.80;41.40;;;5.90;90.90;;;;;;5050551;28;20041;-72
2022/11/14 11:33:21;;;;;;;64.28;40.33;;;5.90;90.80;;;;;;5054800;28;20789;-73
2022/11/14 11:35:49;;;;;;;66.97;41.83;;;5.90;91.00;;;;;;5048646;28;20116;-73
2022/11/14 11:38:17;;;;;;;75.20;44.00;;;5.90;91.10;;;;;;5051732;28;20033;-73
2022/11/14 11:40:47;;;;;;;69.78;42.20;;;6.00;91.10;;;;;;5052825;28;20120;-76
2022/11/14 11:43:20;;;;;;;76.82;43.80;;;6.00;91.20;;;;;;5051882;28;20476;-73
2022/11/14 11:45:48;;;;;;;74.55;43.70;;;6.00;91.10;;;;;;5047746;28;20039;-74
2022/11/14 11:48:18;;;;;;;70.18;43.13;;;6.10;91.10;;;;;;5048383;28;20049;-71
2022/11/14 11:50:43;;;;;;;70.03;41.83;;;6.10;91.00;;;;;;5045314;28;20037;-74
2022/11/14 11:53:12;;;;;;;72.07;41.80;;;6.00;90.80;;;;;;5046949;28;20477;-74
2022/11/14 11:55:50;;;;;;;74.28;42.78;;;6.00;90.80;;;;;;5061357;28;20552;-74
2022/11/14 11:58:45;;;;;;;73.35;42.30;;;6.10;91.00;;;;;;5056038;28;20511;-73
2022/11/14 12:01:13;;;;;;;70.45;40.88;;;6.00;91.00;;;;;;5052484;28;20033;-74
2022/11/14 12:03:41;;;;;;;72.63;41.30;;;6.00;91.10;;;;;;5049504;28;20120;-73
2022/11/14 12:06:26;;;;;;;64.13;38.58;;;6.00;91.20;;;;;;5064290;28;20040;-77
2022/11/14 12:08:57;;;;;;;62.38;36.75;;;6.00;91.20;;;;;;5047349;28;20083;-75
2022/11/14 12:11:26;;;;;;;58.88;36.03;;;6.10;91.20;;;;;;5050958;28;20119;-74
2022/11/14 12:13:54;;;;;;;62.13;38.47;;;6.10;91.20;;;;;;5055004;28;20032;-75
2022/11/14 12:16:20;;;;;;;57.95;36.65;;;6.10;91.50;;;;;;5051515;28;20132;-76
2022/11/14 12:19:14;;;;;;;47.80;30.92;;;6.10;91.30;;;;;;5057269;28;20049;-74
2022/11/14 12:21:59;;;;;;;50.00;32.50;;;6.10;91.20;;;;;;5043518;28;20041;-73
2022/11/14 12:24:49;;;;;;;50.25;30.40;;;6.10;91.30;;;;;;5053202;28;20573;-75
2022/11/14 12:27:50;;;;;;;51.67;31.67;;;6.20;91.40;;;;;;5046093;28;20057;-74
2022/11/14 12:30:22;;;;;;;51.38;33.40;;;6.20;91.20;;;;;;5047515;28;20488;-75
2022/11/14 12:33:02;;;;;;;54.03;34.38;;;6.10;91.30;;;;;;5055342;28;20107;-76
2022/11/14 12:35:34;;;;;;;54.58;34.05;;;6.20;91.50;;;;;;5046780;28;20032;-76
2022/11/14 12:38:03;;;;;;;50.42;32.45;;;6.20;91.50;;;;;;5047409;28;20095;-74
2022/11/14 12:40:36;;;;;;;57.47;34.85;;;6.10;91.40;;;;;;5049266;28;20053;-75
2022/11/14 12:43:10;;;;;;;63.38;36.53;;;6.10;91.30;;;;;;5051046;28;20389;-73
2022/11/14 12:45:39;;;;;;;59.28;36.88;;;6.10;91.70;;;;;;5047332;28;20072;-74
2022/11/14 12:48:20;;;;;;;74.70;41.20;;;6.10;91.60;;;;;;5046802;28;20040;-76